Forside
METAR-TAF:

METAR-TAF

Lufthavne :

Mashhad, Iran

Breddekreds: 36-16N, længdekreds: 059-38E, højde: 989 m

Aktuelle vejr

Denne rapport blev lavet for 29 minutter siden, kl. 14:00 UTC
Vind 14 kt fra østnordøst
Temperatur 37°C
Fugtighed 12%
Tryk 1008 hPa
Sigt 10 km eller mere
ingen skyer under 1500m og ingen cumulonimbus

METAR: OIMM 201400Z 06014KT CAVOK 37/03 Q1008 A2977

Tid: 18:59 (14:29 UTC)

Vejrudsigter

Denne rapport blev lavet for 2 timer og 59 minutter siden, kl. 11:30 UTC
Foreløbig gælder fra 20 på 12 UTC til 21 på 18 UTC
Vind 6 kt fra syd
Sigt 10 km eller mere
ingen skyer under 1500m og ingen cumulonimbus
Midlertidig
fra 20 på 12 UTC til 20 på 18 UTC
Vind 17 kt fra nordnordøst
Midlertidig
fra 21 på 06 UTC til 21 på 18 UTC
Vind 17 kt fra nordøst

TAF: OIMM 201130Z 2012/2118 19003MPS CAVOK TEMPO 2012/2018 03009MPS TEMPO 2106/2118 04009MPS

Vejrobservationer og prognoser fra mere end 4000 lufthavne (METAR og TAF).

De gule og røde prikker repræsenterer de meteorologiske stationer.

Flyt musen over at se navnet på stationen.

Så klik over at se vejr observationer og prognoser.

At skifte det kort: Klik på de grønne knapper med et sort kors for at zoome ind; på den grønne knap med en bindestreg for at zoome ud; eller på de grønne pile for tilstødende kort.


METAR-TAF: